sensor_id;sensor_type;location;lat;lon;timestamp;pressure;altitude;pressure_sealevel;temperature;humidity
44988;BME280;35735;52.226;21.254;2022-07-22T00:00:36;100341.22;;;19.58;100.00
44988;BME280;35735;52.226;21.254;2022-07-22T00:05:36;100345.78;;;19.57;100.00
44988;BME280;35735;52.226;21.254;2022-07-22T00:10:37;100353.72;;;19.65;100.00
44988;BME280;35735;52.226;21.254;2022-07-22T00:15:38;100352.84;;;19.65;100.00
44988;BME280;35735;52.226;21.254;2022-07-22T00:20:38;100356.78;;;19.56;100.00
44988;BME280;35735;52.226;21.254;2022-07-22T00:25:39;100350.06;;;19.41;100.00
44988;BME280;35735;52.226;21.254;2022-07-22T00:30:39;100351.91;;;19.40;100.00
44988;BME280;35735;52.226;21.254;2022-07-22T00:35:40;100340.12;;;19.38;100.00
44988;BME280;35735;52.226;21.254;2022-07-22T00:40:41;100332.16;;;19.32;100.00
44988;BME280;35735;52.226;21.254;2022-07-22T00:45:41;100332.97;;;19.34;100.00
44988;BME280;35735;52.226;21.254;2022-07-22T00:50:42;100323.72;;;19.38;100.00
44988;BME280;35735;52.226;21.254;2022-07-22T00:55:44;100325.25;;;19.22;100.00
44988;BME280;35735;52.226;21.254;2022-07-22T01:00:45;100327.88;;;19.25;100.00
44988;BME280;35735;52.226;21.254;2022-07-22T01:05:45;100320.09;;;19.13;100.00
44988;BME280;35735;52.226;21.254;2022-07-22T01:10:46;100326.97;;;18.99;100.00
44988;BME280;35735;52.226;21.254;2022-07-22T01:15:47;100323.66;;;18.91;100.00
44988;BME280;35735;52.226;21.254;2022-07-22T01:20:47;100327.53;;;18.84;100.00
44988;BME280;35735;52.226;21.254;2022-07-22T01:25:48;100325.75;;;18.83;100.00
44988;BME280;35735;52.226;21.254;2022-07-22T01:30:49;100322.41;;;18.73;100.00
44988;BME280;35735;52.226;21.254;2022-07-22T01:35:50;100314.31;;;18.70;100.00
44988;BME280;35735;52.226;21.254;2022-07-22T01:40:51;100307.25;;;18.64;100.00
44988;BME280;35735;52.226;21.254;2022-07-22T01:45:53;100304.81;;;18.55;100.00
44988;BME280;35735;52.226;21.254;2022-07-22T01:50:53;100308.37;;;18.57;100.00
44988;BME280;35735;52.226;21.254;2022-07-22T01:55:54;100308.78;;;18.46;100.00
44988;BME280;35735;52.226;21.254;2022-07-22T02:00:55;100302.47;;;18.44;100.00
44988;BME280;35735;52.226;21.254;2022-07-22T02:05:56;100299.84;;;18.41;100.00
44988;BME280;35735;52.226;21.254;2022-07-22T02:10:56;100300.00;;;18.37;100.00
44988;BME280;35735;52.226;21.254;2022-07-22T02:15:57;100305.59;;;18.32;100.00
44988;BME280;35735;52.226;21.254;2022-07-22T02:20:57;100316.03;;;18.19;100.00
44988;BME280;35735;52.226;21.254;2022-07-22T02:25:58;100319.00;;;18.13;100.00
44988;BME280;35735;52.226;21.254;2022-07-22T02:30:58;100317.00;;;18.18;100.00
44988;BME280;35735;52.226;21.254;2022-07-22T02:35:59;100318.78;;;18.19;100.00
44988;BME280;35735;52.226;21.254;2022-07-22T02:41:00;100326.50;;;18.06;100.00
44988;BME280;35735;52.226;21.254;2022-07-22T02:46:00;100332.19;;;17.99;100.00
44988;BME280;35735;52.226;21.254;2022-07-22T02:51:01;100321.53;;;17.91;100.00
44988;BME280;35735;52.226;21.254;2022-07-22T02:56:02;100326.16;;;17.87;100.00
44988;BME280;35735;52.226;21.254;2022-07-22T03:01:02;100324.41;;;17.85;100.00
44988;BME280;35735;52.226;21.254;2022-07-22T03:06:03;100332.66;;;17.83;100.00
44988;BME280;35735;52.226;21.254;2022-07-22T03:11:04;100323.44;;;17.87;100.00
44988;BME280;35735;52.226;21.254;2022-07-22T03:16:05;100318.06;;;17.84;100.00
44988;BME280;35735;52.226;21.254;2022-07-22T03:21:08;100341.97;;;17.76;100.00
44988;BME280;35735;52.226;21.254;2022-07-22T03:26:09;100326.25;;;17.84;100.00
44988;BME280;35735;52.226;21.254;2022-07-22T03:31:10;100327.19;;;17.83;100.00
44988;BME280;35735;52.226;21.254;2022-07-22T03:36:10;100318.06;;;17.84;100.00
44988;BME280;35735;52.226;21.254;2022-07-22T03:41:11;100325.84;;;17.68;100.00
44988;BME280;35735;52.226;21.254;2022-07-22T03:46:12;100319.19;;;17.77;100.00
44988;BME280;35735;52.226;21.254;2022-07-22T03:51:12;100322.41;;;17.91;100.00
44988;BME280;35735;52.226;21.254;2022-07-22T03:56:13;100335.47;;;18.10;100.00
44988;BME280;35735;52.226;21.254;2022-07-22T04:01:13;100342.22;;;18.26;100.00
44988;BME280;35735;52.226;21.254;2022-07-22T04:06:15;100339.03;;;18.40;100.00
44988;BME280;35735;52.226;21.254;2022-07-22T04:11:15;100342.25;;;18.53;100.00
44988;BME280;35735;52.226;21.254;2022-07-22T04:16:16;100342.16;;;18.83;100.00
44988;BME280;35735;52.226;21.254;2022-07-22T04:21:16;100342.34;;;19.03;100.00
44988;BME280;35735;52.226;21.254;2022-07-22T04:26:17;100338.59;;;19.31;100.00
44988;BME280;35735;52.226;21.254;2022-07-22T04:31:18;100335.87;;;19.55;100.00
44988;BME280;35735;52.226;21.254;2022-07-22T04:36:18;100340.34;;;19.81;100.00
44988;BME280;35735;52.226;21.254;2022-07-22T04:41:19;100345.81;;;20.05;100.00
44988;BME280;35735;52.226;21.254;2022-07-22T04:46:19;100348.38;;;20.31;100.00
44988;BME280;35735;52.226;21.254;2022-07-22T04:51:20;100349.00;;;20.60;100.00
44988;BME280;35735;52.226;21.254;2022-07-22T04:56:21;100352.16;;;20.94;100.00
44988;BME280;35735;52.226;21.254;2022-07-22T05:01:27;100342.25;;;21.31;100.00
44988;BME280;35735;52.226;21.254;2022-07-22T05:06:34;100350.44;;;21.72;100.00
44988;BME280;35735;52.226;21.254;2022-07-22T05:11:35;100343.34;;;22.06;100.00
44988;BME280;35735;52.226;21.254;2022-07-22T05:16:36;100338.94;;;22.39;99.14
44988;BME280;35735;52.226;21.254;2022-07-22T05:21:37;100338.41;;;22.68;98.17
44988;BME280;35735;52.226;21.254;2022-07-22T05:26:37;100339.31;;;23.03;97.36
44988;BME280;35735;52.226;21.254;2022-07-22T05:31:40;100340.09;;;23.40;96.21
44988;BME280;35735;52.226;21.254;2022-07-22T05:36:41;100338.25;;;23.74;94.94
44988;BME280;35735;52.226;21.254;2022-07-22T05:41:42;100334.75;;;24.04;93.64
44988;BME280;35735;52.226;21.254;2022-07-22T05:46:43;100343.81;;;24.38;92.59
44988;BME280;35735;52.226;21.254;2022-07-22T05:51:44;100346.84;;;24.65;91.63
44988;BME280;35735;52.226;21.254;2022-07-22T05:56:44;100346.47;;;25.02;90.38
44988;BME280;35735;52.226;21.254;2022-07-22T06:01:45;100348.25;;;25.47;90.12
44988;BME280;35735;52.226;21.254;2022-07-22T06:06:45;100343.84;;;25.88;88.57
44988;BME280;35735;52.226;21.254;2022-07-22T06:11:46;100342.78;;;26.32;86.73
44988;BME280;35735;52.226;21.254;2022-07-22T06:16:46;100354.72;;;26.74;85.62
44988;BME280;35735;52.226;21.254;2022-07-22T06:21:47;100353.72;;;27.15;84.19
44988;BME280;35735;52.226;21.254;2022-07-22T06:26:48;100337.59;;;27.61;82.51
44988;BME280;35735;52.226;21.254;2022-07-22T06:31:48;100335.34;;;28.04;80.00
44988;BME280;35735;52.226;21.254;2022-07-22T06:36:49;100346.00;;;28.48;78.82
44988;BME280;35735;52.226;21.254;2022-07-22T06:41:49;100347.25;;;28.92;77.21
44988;BME280;35735;52.226;21.254;2022-07-22T06:46:50;100341.22;;;29.33;74.76
44988;BME280;35735;52.226;21.254;2022-07-22T06:51:50;100344.81;;;29.69;72.34
44988;BME280;35735;52.226;21.254;2022-07-22T06:56:51;100350.66;;;30.00;70.83
44988;BME280;35735;52.226;21.254;2022-07-22T07:01:52;100357.34;;;30.32;70.15
44988;BME280;35735;52.226;21.254;2022-07-22T07:06:52;100358.44;;;30.63;68.24
44988;BME280;35735;52.226;21.254;2022-07-22T07:11:53;100354.19;;;30.91;65.55
44988;BME280;35735;52.226;21.254;2022-07-22T07:16:53;100359.78;;;31.12;65.51
44988;BME280;35735;52.226;21.254;2022-07-22T07:21:54;100356.50;;;31.39;63.87
44988;BME280;35735;52.226;21.254;2022-07-22T07:26:54;100356.84;;;31.46;62.60
44988;BME280;35735;52.226;21.254;2022-07-22T07:31:55;100348.91;;;31.63;61.98
44988;BME280;35735;52.226;21.254;2022-07-22T07:36:55;100349.25;;;31.79;60.56
44988;BME280;35735;52.226;21.254;2022-07-22T07:41:56;100342.37;;;31.83;60.81
44988;BME280;35735;52.226;21.254;2022-07-22T07:46:57;100344.31;;;32.13;61.38
44988;BME280;35735;52.226;21.254;2022-07-22T07:51:57;100339.06;;;32.30;61.06
44988;BME280;35735;52.226;21.254;2022-07-22T07:56:58;100337.66;;;32.55;61.05
44988;BME280;35735;52.226;21.254;2022-07-22T08:01:59;100326.66;;;32.63;59.45
44988;BME280;35735;52.226;21.254;2022-07-22T08:06:59;100329.75;;;32.70;60.31
44988;BME280;35735;52.226;21.254;2022-07-22T08:12:00;100334.63;;;33.07;58.54
44988;BME280;35735;52.226;21.254;2022-07-22T08:17:01;100331.28;;;33.23;58.43
44988;BME280;35735;52.226;21.254;2022-07-22T08:22:02;100333.59;;;33.37;56.33
44988;BME280;35735;52.226;21.254;2022-07-22T08:27:05;100325.03;;;33.49;55.82
44988;BME280;35735;52.226;21.254;2022-07-22T08:32:05;100329.41;;;33.61;55.62
44988;BME280;35735;52.226;21.254;2022-07-22T08:37:06;100322.63;;;33.73;54.67
44988;BME280;35735;52.226;21.254;2022-07-22T08:42:07;100325.31;;;34.03;55.04
44988;BME280;35735;52.226;21.254;2022-07-22T08:47:07;100326.84;;;34.25;53.30
44988;BME280;35735;52.226;21.254;2022-07-22T08:52:08;100332.69;;;34.31;53.67
44988;BME280;35735;52.226;21.254;2022-07-22T08:57:09;100326.41;;;34.47;52.48
44988;BME280;35735;52.226;21.254;2022-07-22T09:02:10;100326.56;;;34.74;52.26
44988;BME280;35735;52.226;21.254;2022-07-22T09:07:10;100319.50;;;34.87;51.35
44988;BME280;35735;52.226;21.254;2022-07-22T09:12:11;100309.88;;;35.08;51.04
44988;BME280;35735;52.226;21.254;2022-07-22T09:17:29;100310.81;;;35.35;50.58
44988;BME280;35735;52.226;21.254;2022-07-22T09:22:39;100306.78;;;35.55;48.56
44988;BME280;35735;52.226;21.254;2022-07-22T09:27:42;100303.06;;;35.55;47.89
44988;BME280;35735;52.226;21.254;2022-07-22T09:32:43;100304.72;;;35.66;47.81
44988;BME280;35735;52.226;21.254;2022-07-22T09:43:03;100307.81;;;35.54;44.83
44988;BME280;35735;52.226;21.254;2022-07-22T09:48:08;100304.63;;;35.49;44.38
44988;BME280;35735;52.226;21.254;2022-07-22T09:53:08;100310.88;;;35.43;44.31
44988;BME280;35735;52.226;21.254;2022-07-22T09:58:09;100311.81;;;35.07;46.26
44988;BME280;35735;52.226;21.254;2022-07-22T10:03:17;100310.81;;;35.35;46.44
44988;BME280;35735;52.226;21.254;2022-07-22T10:08:19;100315.28;;;35.46;46.30
44988;BME280;35735;52.226;21.254;2022-07-22T10:13:20;100313.31;;;35.64;46.30
44988;BME280;35735;52.226;21.254;2022-07-22T10:18:21;100313.12;;;35.84;45.77
44988;BME280;35735;52.226;21.254;2022-07-22T10:23:21;100312.97;;;35.93;46.02
44988;BME280;35735;52.226;21.254;2022-07-22T10:28:33;100317.00;;;35.65;45.99
44988;BME280;35735;52.226;21.254;2022-07-22T10:33:35;100313.25;;;35.30;47.98
44988;BME280;35735;52.226;21.254;2022-07-22T10:38:35;100303.22;;;35.09;48.82
44988;BME280;35735;52.226;21.254;2022-07-22T10:54:00;100290.47;;;35.15;49.10
44988;BME280;35735;52.226;21.254;2022-07-22T11:04:14;100296.16;;;35.05;46.79
44988;BME280;35735;52.226;21.254;2022-07-22T11:09:21;100296.25;;;35.13;46.03
44988;BME280;35735;52.226;21.254;2022-07-22T11:14:32;100292.97;;;35.00;45.84
44988;BME280;35735;52.226;21.254;2022-07-22T11:19:35;100286.72;;;35.06;45.88
44988;BME280;35735;52.226;21.254;2022-07-22T11:24:37;100288.97;;;35.20;45.13
44988;BME280;35735;52.226;21.254;2022-07-22T11:29:39;100280.28;;;35.32;44.67
44988;BME280;35735;52.226;21.254;2022-07-22T11:34:43;100296.78;;;35.35;44.05
44988;BME280;35735;52.226;21.254;2022-07-22T11:39:45;100286.34;;;35.45;44.63
44988;BME280;35735;52.226;21.254;2022-07-22T11:44:46;100271.66;;;35.51;44.55
44988;BME280;35735;52.226;21.254;2022-07-22T11:49:49;100275.31;;;35.52;44.46
44988;BME280;35735;52.226;21.254;2022-07-22T11:54:50;100269.28;;;35.65;44.35
44988;BME280;35735;52.226;21.254;2022-07-22T11:59:50;100258.50;;;35.78;43.73
44988;BME280;35735;52.226;21.254;2022-07-22T12:04:51;100263.06;;;35.79;42.51
44988;BME280;35735;52.226;21.254;2022-07-22T12:09:51;100263.19;;;35.43;41.48
44988;BME280;35735;52.226;21.254;2022-07-22T12:14:57;100260.78;;;35.04;40.53
44988;BME280;35735;52.226;21.254;2022-07-22T12:20:09;100257.19;;;34.94;41.29
44988;BME280;35735;52.226;21.254;2022-07-22T12:25:10;100254.37;;;34.94;43.63
44988;BME280;35735;52.226;21.254;2022-07-22T12:30:12;100244.44;;;34.81;44.97
44988;BME280;35735;52.226;21.254;2022-07-22T12:35:14;100255.34;;;34.84;45.01
44988;BME280;35735;52.226;21.254;2022-07-22T12:40:21;100246.19;;;34.64;45.98
44988;BME280;35735;52.226;21.254;2022-07-22T12:45:22;100238.62;;;34.57;47.44
44988;BME280;35735;52.226;21.254;2022-07-22T12:50:28;100238.34;;;34.32;47.72
44988;BME280;35735;52.226;21.254;2022-07-22T12:55:30;100241.94;;;34.24;48.76
44988;BME280;35735;52.226;21.254;2022-07-22T13:00:37;100233.97;;;34.20;49.90
44988;BME280;35735;52.226;21.254;2022-07-22T13:05:39;100223.25;;;34.15;50.59
44988;BME280;35735;52.226;21.254;2022-07-22T13:10:39;100229.56;;;34.27;51.14
44988;BME280;35735;52.226;21.254;2022-07-22T13:15:40;100228.91;;;34.33;50.83
44988;BME280;35735;52.226;21.254;2022-07-22T13:20:41;100219.47;;;34.34;50.54
44988;BME280;35735;52.226;21.254;2022-07-22T13:25:42;100225.06;;;34.34;50.02
44988;BME280;35735;52.226;21.254;2022-07-22T13:30:42;100214.97;;;34.41;50.30
44988;BME280;35735;52.226;21.254;2022-07-22T13:35:43;100224.44;;;34.40;50.68
44988;BME280;35735;52.226;21.254;2022-07-22T13:40:44;100213.78;;;34.26;51.49
44988;BME280;35735;52.226;21.254;2022-07-22T13:45:45;100209.19;;;34.25;52.17
44988;BME280;35735;52.226;21.254;2022-07-22T13:50:46;100206.63;;;34.13;52.55
44988;BME280;35735;52.226;21.254;2022-07-22T13:55:47;100211.88;;;33.99;52.80
44988;BME280;35735;52.226;21.254;2022-07-22T14:00:47;100195.84;;;33.91;52.65
44988;BME280;35735;52.226;21.254;2022-07-22T14:05:48;100197.94;;;33.89;52.66
44988;BME280;35735;52.226;21.254;2022-07-22T14:10:49;100198.84;;;33.79;52.91
44988;BME280;35735;52.226;21.254;2022-07-22T14:15:49;100198.03;;;33.69;52.92
44988;BME280;35735;52.226;21.254;2022-07-22T14:20:50;100192.44;;;33.69;52.58
44988;BME280;35735;52.226;21.254;2022-07-22T14:25:50;100194.22;;;33.70;52.54
44988;BME280;35735;52.226;21.254;2022-07-22T14:30:51;100182.16;;;33.70;52.51
44988;BME280;35735;52.226;21.254;2022-07-22T14:35:51;100176.56;;;33.70;52.95
44988;BME280;35735;52.226;21.254;2022-07-22T14:40:52;100185.19;;;33.76;53.09
44988;BME280;35735;52.226;21.254;2022-07-22T14:45:53;100183.28;;;33.67;52.99
44988;BME280;35735;52.226;21.254;2022-07-22T14:50:53;100191.00;;;33.55;53.19
44988;BME280;35735;52.226;21.254;2022-07-22T14:55:54;100187.22;;;33.47;53.19
44988;BME280;35735;52.226;21.254;2022-07-22T15:00:54;100190.03;;;33.47;53.46
44988;BME280;35735;52.226;21.254;2022-07-22T15:05:55;100188.84;;;33.39;53.45
44988;BME280;35735;52.226;21.254;2022-07-22T15:10:55;100180.63;;;33.38;53.72
44988;BME280;35735;52.226;21.254;2022-07-22T15:15:57;100180.63;;;33.38;54.11
44988;BME280;35735;52.226;21.254;2022-07-22T15:20:57;100179.63;;;33.29;54.34
44988;BME280;35735;52.226;21.254;2022-07-22T15:25:59;100186.88;;;33.22;54.67
44988;BME280;35735;52.226;21.254;2022-07-22T15:31:01;100186.72;;;33.14;54.73
44988;BME280;35735;52.226;21.254;2022-07-22T15:36:06;100196.19;;;33.03;54.69
44988;BME280;35735;52.226;21.254;2022-07-22T15:41:08;100191.50;;;32.84;55.17
44988;BME280;35735;52.226;21.254;2022-07-22T15:46:09;100195.34;;;32.73;55.55
44988;BME280;35735;52.226;21.254;2022-07-22T15:51:09;100185.59;;;32.58;55.76
44988;BME280;35735;52.226;21.254;2022-07-22T15:56:10;100184.88;;;32.46;56.19
44988;BME280;35735;52.226;21.254;2022-07-22T16:01:11;100186.81;;;32.36;56.62
44988;BME280;35735;52.226;21.254;2022-07-22T16:06:11;100181.53;;;32.23;56.64
44988;BME280;35735;52.226;21.254;2022-07-22T16:11:12;100185.47;;;32.20;56.93
44988;BME280;35735;52.226;21.254;2022-07-22T16:16:12;100184.44;;;32.11;56.81
44988;BME280;35735;52.226;21.254;2022-07-22T16:21:14;100188.53;;;32.07;57.20
44988;BME280;35735;52.226;21.254;2022-07-22T16:26:14;100186.81;;;32.06;57.00
44988;BME280;35735;52.226;21.254;2022-07-22T16:31:15;100175.00;;;32.03;56.75
44988;BME280;35735;52.226;21.254;2022-07-22T16:36:16;100182.34;;;32.04;56.54
44988;BME280;35735;52.226;21.254;2022-07-22T16:41:17;100187.03;;;32.03;56.52
44988;BME280;35735;52.226;21.254;2022-07-22T16:46:17;100179.09;;;31.99;56.21
44988;BME280;35735;52.226;21.254;2022-07-22T16:51:18;100182.28;;;31.84;56.30
44988;BME280;35735;52.226;21.254;2022-07-22T16:56:18;100176.41;;;31.68;56.60
44988;BME280;35735;52.226;21.254;2022-07-22T17:01:19;100179.03;;;31.60;56.42
44988;BME280;35735;52.226;21.254;2022-07-22T17:06:19;100190.97;;;31.50;56.60
44988;BME280;35735;52.226;21.254;2022-07-22T17:11:20;100192.13;;;31.38;56.87
44988;BME280;35735;52.226;21.254;2022-07-22T17:16:21;100187.03;;;31.22;57.03
44988;BME280;35735;52.226;21.254;2022-07-22T17:21:21;100187.88;;;31.13;57.27
44988;BME280;35735;52.226;21.254;2022-07-22T17:26:22;100190.81;;;31.11;57.76
44988;BME280;35735;52.226;21.254;2022-07-22T17:31:22;100189.03;;;31.10;57.67
44988;BME280;35735;52.226;21.254;2022-07-22T17:36:23;100189.59;;;31.04;57.78
44988;BME280;35735;52.226;21.254;2022-07-22T17:41:23;100192.44;;;30.93;58.00
44988;BME280;35735;52.226;21.254;2022-07-22T17:46:24;100185.91;;;30.82;58.26
44988;BME280;35735;52.226;21.254;2022-07-22T17:51:25;100196.09;;;30.72;58.42
44988;BME280;35735;52.226;21.254;2022-07-22T17:56:25;100201.75;;;30.61;58.82
44988;BME280;35735;52.226;21.254;2022-07-22T18:01:26;100193.31;;;30.51;58.99
44988;BME280;35735;52.226;21.254;2022-07-22T18:06:27;100203.22;;;30.44;59.39
44988;BME280;35735;52.226;21.254;2022-07-22T18:11:27;100198.41;;;30.35;59.64
44988;BME280;35735;52.226;21.254;2022-07-22T18:16:28;100195.53;;;30.25;60.18
44988;BME280;35735;52.226;21.254;2022-07-22T18:21:29;100192.53;;;30.17;60.53
44988;BME280;35735;52.226;21.254;2022-07-22T18:26:29;100198.62;;;30.10;60.95
44988;BME280;35735;52.226;21.254;2022-07-22T18:31:30;100195.88;;;29.99;61.60
44988;BME280;35735;52.226;21.254;2022-07-22T18:36:30;100197.56;;;29.90;62.31
44988;BME280;35735;52.226;21.254;2022-07-22T18:41:31;100198.44;;;29.80;63.29
44988;BME280;35735;52.226;21.254;2022-07-22T18:46:31;100193.91;;;29.67;63.98
44988;BME280;35735;52.226;21.254;2022-07-22T18:51:32;100202.63;;;29.51;64.63
44988;BME280;35735;52.226;21.254;2022-07-22T18:56:32;100205.53;;;29.38;65.82
44988;BME280;35735;52.226;21.254;2022-07-22T19:01:33;100207.69;;;29.24;66.47
44988;BME280;35735;52.226;21.254;2022-07-22T19:06:34;100215.59;;;29.06;67.22
44988;BME280;35735;52.226;21.254;2022-07-22T19:11:34;100212.25;;;28.78;68.27
44988;BME280;35735;52.226;21.254;2022-07-22T19:16:35;100215.84;;;28.56;69.25
44988;BME280;35735;52.226;21.254;2022-07-22T19:21:36;100211.47;;;28.40;69.76
44988;BME280;35735;52.226;21.254;2022-07-22T19:26:36;100218.88;;;28.28;70.50
44988;BME280;35735;52.226;21.254;2022-07-22T19:31:37;100211.28;;;28.06;71.35
44988;BME280;35735;52.226;21.254;2022-07-22T19:36:37;100220.88;;;27.89;72.05
44988;BME280;35735;52.226;21.254;2022-07-22T19:41:38;100223.81;;;27.75;72.61
44988;BME280;35735;52.226;21.254;2022-07-22T19:46:38;100227.37;;;27.51;73.43
44988;BME280;35735;52.226;21.254;2022-07-22T19:51:39;100227.84;;;27.20;74.15
44988;BME280;35735;52.226;21.254;2022-07-22T19:56:39;100235.03;;;27.09;75.12
44988;BME280;35735;52.226;21.254;2022-07-22T20:01:40;100237.13;;;26.93;75.61
44988;BME280;35735;52.226;21.254;2022-07-22T20:06:41;100224.72;;;26.73;76.12
44988;BME280;35735;52.226;21.254;2022-07-22T20:11:41;100222.22;;;26.55;76.97
44988;BME280;35735;52.226;21.254;2022-07-22T20:16:42;100231.25;;;26.44;77.33
44988;BME280;35735;52.226;21.254;2022-07-22T20:21:42;100234.56;;;26.37;77.44
44988;BME280;35735;52.226;21.254;2022-07-22T20:26:43;100239.06;;;26.25;77.55
44988;BME280;35735;52.226;21.254;2022-07-22T20:31:43;100242.47;;;26.16;77.93
44988;BME280;35735;52.226;21.254;2022-07-22T20:36:45;100244.47;;;25.99;78.74
44988;BME280;35735;52.226;21.254;2022-07-22T20:41:47;100245.38;;;25.85;79.58
44988;BME280;35735;52.226;21.254;2022-07-22T20:46:48;100239.72;;;25.60;80.28
44988;BME280;35735;52.226;21.254;2022-07-22T20:51:48;100234.72;;;25.38;81.24
44988;BME280;35735;52.226;21.254;2022-07-22T20:56:49;100237.84;;;25.31;82.04
44988;BME280;35735;52.226;21.254;2022-07-22T21:01:50;100233.28;;;25.16;82.66
44988;BME280;35735;52.226;21.254;2022-07-22T21:06:50;100235.06;;;25.03;83.32
44988;BME280;35735;52.226;21.254;2022-07-22T21:11:51;100235.22;;;24.85;84.05
44988;BME280;35735;52.226;21.254;2022-07-22T21:16:51;100235.50;;;24.81;84.48
44988;BME280;35735;52.226;21.254;2022-07-22T21:21:52;100237.47;;;24.78;84.70
44988;BME280;35735;52.226;21.254;2022-07-22T21:26:53;100232.03;;;24.63;85.02
44988;BME280;35735;52.226;21.254;2022-07-22T21:31:53;100237.47;;;24.48;85.69
44988;BME280;35735;52.226;21.254;2022-07-22T21:36:54;100242.12;;;24.32;86.23
44988;BME280;35735;52.226;21.254;2022-07-22T21:41:54;100237.78;;;24.28;86.88
44988;BME280;35735;52.226;21.254;2022-07-22T21:46:55;100238.31;;;24.18;87.28
44988;BME280;35735;52.226;21.254;2022-07-22T21:51:55;100233.72;;;24.03;87.68
44988;BME280;35735;52.226;21.254;2022-07-22T21:56:56;100234.63;;;23.88;88.23
44988;BME280;35735;52.226;21.254;2022-07-22T22:01:59;100236.28;;;23.74;88.85
44988;BME280;35735;52.226;21.254;2022-07-22T22:07:01;100241.91;;;23.73;89.22
44988;BME280;35735;52.226;21.254;2022-07-22T22:12:01;100244.13;;;23.66;89.58
44988;BME280;35735;52.226;21.254;2022-07-22T22:17:02;100240.44;;;23.49;89.90
44988;BME280;35735;52.226;21.254;2022-07-22T22:22:03;100240.25;;;23.37;90.41
44988;BME280;35735;52.226;21.254;2022-07-22T22:27:04;100245.38;;;23.27;90.70
44988;BME280;35735;52.226;21.254;2022-07-22T22:32:04;100243.31;;;23.15;91.11
44988;BME280;35735;52.226;21.254;2022-07-22T22:37:05;100240.09;;;23.06;91.28
44988;BME280;35735;52.226;21.254;2022-07-22T22:42:05;100238.62;;;22.99;91.74
44988;BME280;35735;52.226;21.254;2022-07-22T22:47:06;100241.53;;;22.96;91.94
44988;BME280;35735;52.226;21.254;2022-07-22T22:52:06;100254.03;;;22.86;91.98
44988;BME280;35735;52.226;21.254;2022-07-22T22:57:07;100240.91;;;22.73;92.42
44988;BME280;35735;52.226;21.254;2022-07-22T23:02:08;100236.87;;;22.63;92.45
44988;BME280;35735;52.226;21.254;2022-07-22T23:07:08;100241.38;;;22.47;92.77
44988;BME280;35735;52.226;21.254;2022-07-22T23:12:09;100241.88;;;22.37;93.08
44988;BME280;35735;52.226;21.254;2022-07-22T23:17:09;100247.53;;;22.34;93.46
44988;BME280;35735;52.226;21.254;2022-07-22T23:22:10;100256.69;;;22.16;93.53
44988;BME280;35735;52.226;21.254;2022-07-22T23:27:10;100252.62;;;22.06;94.22
44988;BME280;35735;52.226;21.254;2022-07-22T23:32:11;100246.94;;;21.91;94.41
44988;BME280;35735;52.226;21.254;2022-07-22T23:37:11;100251.91;;;21.83;94.96
44988;BME280;35735;52.226;21.254;2022-07-22T23:42:12;100258.03;;;21.71;95.37
44988;BME280;35735;52.226;21.254;2022-07-22T23:47:12;100251.72;;;21.69;95.53
44988;BME280;35735;52.226;21.254;2022-07-22T23:52:13;100250.66;;;21.71;95.85
44988;BME280;35735;52.226;21.254;2022-07-22T23:57:13;100252.00;;;21.62;96.17
